sensor_id;sensor_type;location;lat;lon;timestamp;temperature;humidity
8313;DHT22;4194;43.408;24.626;2024-02-14T00:02:24;7.20;99.90
8313;DHT22;4194;43.408;24.626;2024-02-14T00:04:52;7.30;99.90
8313;DHT22;4194;43.408;24.626;2024-02-14T00:07:19;7.20;99.90
8313;DHT22;4194;43.408;24.626;2024-02-14T00:09:45;7.20;99.90
8313;DHT22;4194;43.408;24.626;2024-02-14T00:12:10;7.00;99.90
8313;DHT22;4194;43.408;24.626;2024-02-14T00:14:37;7.20;99.90
8313;DHT22;4194;43.408;24.626;2024-02-14T00:17:03;7.10;99.90
8313;DHT22;4194;43.408;24.626;2024-02-14T00:19:31;7.20;99.90
8313;DHT22;4194;43.408;24.626;2024-02-14T00:21:56;7.20;99.90
8313;DHT22;4194;43.408;24.626;2024-02-14T00:24:22;7.20;99.90
8313;DHT22;4194;43.408;24.626;2024-02-14T00:26:52;7.20;99.90
8313;DHT22;4194;43.408;24.626;2024-02-14T00:29:18;7.20;99.90
8313;DHT22;4194;43.408;24.626;2024-02-14T00:31:44;7.10;99.90
8313;DHT22;4194;43.408;24.626;2024-02-14T00:34:10;7.10;99.90
8313;DHT22;4194;43.408;24.626;2024-02-14T00:36:36;7.30;99.90
8313;DHT22;4194;43.408;24.626;2024-02-14T00:39:02;7.10;99.90
8313;DHT22;4194;43.408;24.626;2024-02-14T00:41:28;7.00;99.90
8313;DHT22;4194;43.408;24.626;2024-02-14T00:43:57;7.10;99.90
8313;DHT22;4194;43.408;24.626;2024-02-14T00:46:22;7.10;99.90
8313;DHT22;4194;43.408;24.626;2024-02-14T00:48:48;7.30;99.90
8313;DHT22;4194;43.408;24.626;2024-02-14T00:51:14;7.20;99.90
8313;DHT22;4194;43.408;24.626;2024-02-14T00:53:40;7.10;99.90
8313;DHT22;4194;43.408;24.626;2024-02-14T00:56:06;7.40;99.90
8313;DHT22;4194;43.408;24.626;2024-02-14T00:58:32;7.40;99.90
8313;DHT22;4194;43.408;24.626;2024-02-14T01:00:58;7.10;99.90
8313;DHT22;4194;43.408;24.626;2024-02-14T01:03:23;7.30;99.90
8313;DHT22;4194;43.408;24.626;2024-02-14T01:05:50;6.70;99.90
8313;DHT22;4194;43.408;24.626;2024-02-14T01:08:15;7.10;99.90
8313;DHT22;4194;43.408;24.626;2024-02-14T01:10:41;7.10;99.90
8313;DHT22;4194;43.408;24.626;2024-02-14T01:13:07;7.20;99.90
8313;DHT22;4194;43.408;24.626;2024-02-14T01:15:32;7.20;99.90
8313;DHT22;4194;43.408;24.626;2024-02-14T01:18:01;7.20;99.90
8313;DHT22;4194;43.408;24.626;2024-02-14T01:20:26;7.40;99.90
8313;DHT22;4194;43.408;24.626;2024-02-14T01:22:52;7.60;99.90
8313;DHT22;4194;43.408;24.626;2024-02-14T01:25:18;7.10;99.90
8313;DHT22;4194;43.408;24.626;2024-02-14T01:27:43;7.10;99.90
8313;DHT22;4194;43.408;24.626;2024-02-14T01:30:10;7.10;99.90
8313;DHT22;4194;43.408;24.626;2024-02-14T01:32:37;7.20;99.90
8313;DHT22;4194;43.408;24.626;2024-02-14T01:35:02;7.30;99.90
8313;DHT22;4194;43.408;24.626;2024-02-14T01:37:29;7.10;99.90
8313;DHT22;4194;43.408;24.626;2024-02-14T01:39:55;7.20;99.90
8313;DHT22;4194;43.408;24.626;2024-02-14T01:42:21;7.20;99.90
8313;DHT22;4194;43.408;24.626;2024-02-14T01:44:47;6.80;99.90
8313;DHT22;4194;43.408;24.626;2024-02-14T01:47:13;7.30;99.90
8313;DHT22;4194;43.408;24.626;2024-02-14T01:49:39;7.30;99.90
8313;DHT22;4194;43.408;24.626;2024-02-14T01:52:05;7.40;99.90
8313;DHT22;4194;43.408;24.626;2024-02-14T01:54:31;7.50;99.90
8313;DHT22;4194;43.408;24.626;2024-02-14T01:56:59;7.30;99.90
8313;DHT22;4194;43.408;24.626;2024-02-14T01:59:26;7.30;99.90
8313;DHT22;4194;43.408;24.626;2024-02-14T02:01:52;7.40;99.90
8313;DHT22;4194;43.408;24.626;2024-02-14T02:04:18;7.50;99.90
8313;DHT22;4194;43.408;24.626;2024-02-14T02:06:44;7.20;99.90
8313;DHT22;4194;43.408;24.626;2024-02-14T02:09:10;7.30;99.90
8313;DHT22;4194;43.408;24.626;2024-02-14T02:11:52;7.40;99.90
8313;DHT22;4194;43.408;24.626;2024-02-14T02:14:21;7.00;99.90
8313;DHT22;4194;43.408;24.626;2024-02-14T02:16:47;7.30;99.90
8313;DHT22;4194;43.408;24.626;2024-02-14T02:19:14;7.20;99.90
8313;DHT22;4194;43.408;24.626;2024-02-14T02:21:44;7.30;99.90
8313;DHT22;4194;43.408;24.626;2024-02-14T02:24:11;7.30;99.90
8313;DHT22;4194;43.408;24.626;2024-02-14T02:26:37;7.10;99.90
8313;DHT22;4194;43.408;24.626;2024-02-14T02:29:03;7.10;99.90
8313;DHT22;4194;43.408;24.626;2024-02-14T02:31:30;7.10;99.90
8313;DHT22;4194;43.408;24.626;2024-02-14T02:33:56;7.10;99.90
8313;DHT22;4194;43.408;24.626;2024-02-14T02:36:23;7.00;99.90
8313;DHT22;4194;43.408;24.626;2024-02-14T02:38:50;7.10;99.90
8313;DHT22;4194;43.408;24.626;2024-02-14T02:41:17;7.00;99.90
8313;DHT22;4194;43.408;24.626;2024-02-14T02:43:42;6.80;99.90
8313;DHT22;4194;43.408;24.626;2024-02-14T02:46:11;7.00;99.90
8313;DHT22;4194;43.408;24.626;2024-02-14T02:48:37;7.00;99.90
8313;DHT22;4194;43.408;24.626;2024-02-14T02:51:03;6.90;99.90
8313;DHT22;4194;43.408;24.626;2024-02-14T02:53:29;6.90;99.90
8313;DHT22;4194;43.408;24.626;2024-02-14T02:55:54;7.10;99.90
8313;DHT22;4194;43.408;24.626;2024-02-14T02:58:22;7.10;99.90
8313;DHT22;4194;43.408;24.626;2024-02-14T03:00:48;7.10;99.90
8313;DHT22;4194;43.408;24.626;2024-02-14T03:03:17;7.10;99.90
8313;DHT22;4194;43.408;24.626;2024-02-14T03:05:42;6.90;99.90
8313;DHT22;4194;43.408;24.626;2024-02-14T03:08:10;7.00;99.90
8313;DHT22;4194;43.408;24.626;2024-02-14T03:10:39;7.00;99.90
8313;DHT22;4194;43.408;24.626;2024-02-14T03:13:06;7.60;99.90
8313;DHT22;4194;43.408;24.626;2024-02-14T03:15:34;7.50;99.90
8313;DHT22;4194;43.408;24.626;2024-02-14T03:18:01;6.80;99.90
8313;DHT22;4194;43.408;24.626;2024-02-14T03:20:26;7.10;99.90
8313;DHT22;4194;43.408;24.626;2024-02-14T03:22:54;7.00;99.90
8313;DHT22;4194;43.408;24.626;2024-02-14T03:25:20;7.10;99.90
8313;DHT22;4194;43.408;24.626;2024-02-14T03:27:47;6.80;99.90
8313;DHT22;4194;43.408;24.626;2024-02-14T03:30:15;7.30;99.90
8313;DHT22;4194;43.408;24.626;2024-02-14T03:32:45;7.10;99.90
8313;DHT22;4194;43.408;24.626;2024-02-14T03:35:12;7.00;99.90
8313;DHT22;4194;43.408;24.626;2024-02-14T03:37:40;7.10;99.90
8313;DHT22;4194;43.408;24.626;2024-02-14T03:40:06;7.00;99.90
8313;DHT22;4194;43.408;24.626;2024-02-14T03:42:36;7.20;99.90
8313;DHT22;4194;43.408;24.626;2024-02-14T03:45:06;7.30;99.90
8313;DHT22;4194;43.408;24.626;2024-02-14T03:47:32;7.00;99.90
8313;DHT22;4194;43.408;24.626;2024-02-14T03:49:59;7.00;99.90
8313;DHT22;4194;43.408;24.626;2024-02-14T03:52:25;6.80;99.90
8313;DHT22;4194;43.408;24.626;2024-02-14T03:54:51;6.90;99.90
8313;DHT22;4194;43.408;24.626;2024-02-14T03:57:17;7.00;99.90
8313;DHT22;4194;43.408;24.626;2024-02-14T03:59:46;7.00;99.90
8313;DHT22;4194;43.408;24.626;2024-02-14T04:02:12;7.40;99.90
8313;DHT22;4194;43.408;24.626;2024-02-14T04:04:41;6.60;99.90
8313;DHT22;4194;43.408;24.626;2024-02-14T04:07:08;6.70;99.90
8313;DHT22;4194;43.408;24.626;2024-02-14T04:09:34;7.00;99.90
8313;DHT22;4194;43.408;24.626;2024-02-14T04:12:00;7.40;99.90
8313;DHT22;4194;43.408;24.626;2024-02-14T04:14:26;7.10;99.90
8313;DHT22;4194;43.408;24.626;2024-02-14T04:16:51;7.10;99.90
8313;DHT22;4194;43.408;24.626;2024-02-14T04:19:17;7.10;99.90
8313;DHT22;4194;43.408;24.626;2024-02-14T04:21:43;6.80;99.90
8313;DHT22;4194;43.408;24.626;2024-02-14T04:24:09;7.20;99.90
8313;DHT22;4194;43.408;24.626;2024-02-14T04:26:35;7.10;99.90
8313;DHT22;4194;43.408;24.626;2024-02-14T04:29:01;6.80;99.90
8313;DHT22;4194;43.408;24.626;2024-02-14T04:31:27;7.00;99.90
8313;DHT22;4194;43.408;24.626;2024-02-14T04:33:58;7.00;99.90
8313;DHT22;4194;43.408;24.626;2024-02-14T04:36:24;7.10;99.90
8313;DHT22;4194;43.408;24.626;2024-02-14T04:38:50;7.00;99.90
8313;DHT22;4194;43.408;24.626;2024-02-14T04:41:16;7.00;99.90
8313;DHT22;4194;43.408;24.626;2024-02-14T04:43:42;7.40;99.90
8313;DHT22;4194;43.408;24.626;2024-02-14T04:46:07;7.10;99.90
8313;DHT22;4194;43.408;24.626;2024-02-14T04:48:37;6.90;99.90
8313;DHT22;4194;43.408;24.626;2024-02-14T04:51:04;7.00;99.90
8313;DHT22;4194;43.408;24.626;2024-02-14T04:53:31;7.00;99.90
8313;DHT22;4194;43.408;24.626;2024-02-14T04:55:56;7.20;99.90
8313;DHT22;4194;43.408;24.626;2024-02-14T04:58:22;6.90;99.90
8313;DHT22;4194;43.408;24.626;2024-02-14T05:00:48;8.10;99.90
8313;DHT22;4194;43.408;24.626;2024-02-14T05:03:14;7.00;99.90
8313;DHT22;4194;43.408;24.626;2024-02-14T05:05:41;7.00;99.90
8313;DHT22;4194;43.408;24.626;2024-02-14T05:08:06;6.90;99.90
8313;DHT22;4194;43.408;24.626;2024-02-14T05:10:32;7.00;99.90
8313;DHT22;4194;43.408;24.626;2024-02-14T05:12:58;6.90;99.90
8313;DHT22;4194;43.408;24.626;2024-02-14T05:15:24;7.00;99.90
8313;DHT22;4194;43.408;24.626;2024-02-14T05:17:50;6.90;99.90
8313;DHT22;4194;43.408;24.626;2024-02-14T05:20:16;7.40;99.90
8313;DHT22;4194;43.408;24.626;2024-02-14T05:22:42;7.30;99.90
8313;DHT22;4194;43.408;24.626;2024-02-14T05:25:08;7.00;99.90
8313;DHT22;4194;43.408;24.626;2024-02-14T05:27:37;7.30;99.90
8313;DHT22;4194;43.408;24.626;2024-02-14T05:30:04;6.70;99.90
8313;DHT22;4194;43.408;24.626;2024-02-14T05:32:35;7.00;99.90
8313;DHT22;4194;43.408;24.626;2024-02-14T05:35:01;6.90;99.90
8313;DHT22;4194;43.408;24.626;2024-02-14T05:37:27;7.00;99.90
8313;DHT22;4194;43.408;24.626;2024-02-14T05:39:53;6.90;99.90
8313;DHT22;4194;43.408;24.626;2024-02-14T05:42:20;7.20;99.90
8313;DHT22;4194;43.408;24.626;2024-02-14T05:44:46;6.90;99.90
8313;DHT22;4194;43.408;24.626;2024-02-14T05:47:12;6.90;99.90
8313;DHT22;4194;43.408;24.626;2024-02-14T05:49:41;6.90;99.90
8313;DHT22;4194;43.408;24.626;2024-02-14T05:52:07;6.70;99.90
8313;DHT22;4194;43.408;24.626;2024-02-14T05:54:34;6.80;99.90
8313;DHT22;4194;43.408;24.626;2024-02-14T05:57:00;7.00;99.90
8313;DHT22;4194;43.408;24.626;2024-02-14T05:59:27;3.90;99.90
8313;DHT22;4194;43.408;24.626;2024-02-14T06:01:53;6.50;99.90
8313;DHT22;4194;43.408;24.626;2024-02-14T06:04:19;6.80;99.90
8313;DHT22;4194;43.408;24.626;2024-02-14T06:06:44;6.50;99.90
8313;DHT22;4194;43.408;24.626;2024-02-14T06:09:10;6.80;99.90
8313;DHT22;4194;43.408;24.626;2024-02-14T06:11:37;6.80;99.90
8313;DHT22;4194;43.408;24.626;2024-02-14T06:14:07;6.70;99.90
8313;DHT22;4194;43.408;24.626;2024-02-14T06:16:33;6.80;99.90
8313;DHT22;4194;43.408;24.626;2024-02-14T06:18:59;7.00;99.90
8313;DHT22;4194;43.408;24.626;2024-02-14T06:21:25;6.80;99.90
8313;DHT22;4194;43.408;24.626;2024-02-14T06:23:51;6.90;99.90
8313;DHT22;4194;43.408;24.626;2024-02-14T06:26:17;7.10;99.90
8313;DHT22;4194;43.408;24.626;2024-02-14T06:28:44;7.00;99.90
8313;DHT22;4194;43.408;24.626;2024-02-14T06:31:09;7.40;99.90
8313;DHT22;4194;43.408;24.626;2024-02-14T06:33:35;7.10;99.90
8313;DHT22;4194;43.408;24.626;2024-02-14T06:36:01;6.90;99.90
8313;DHT22;4194;43.408;24.626;2024-02-14T06:38:27;6.70;99.90
8313;DHT22;4194;43.408;24.626;2024-02-14T06:40:53;6.90;99.90
8313;DHT22;4194;43.408;24.626;2024-02-14T06:43:18;7.20;99.90
8313;DHT22;4194;43.408;24.626;2024-02-14T06:45:45;7.00;99.90
8313;DHT22;4194;43.408;24.626;2024-02-14T06:48:11;6.80;99.90
8313;DHT22;4194;43.408;24.626;2024-02-14T06:50:37;6.80;99.90
8313;DHT22;4194;43.408;24.626;2024-02-14T06:53:03;6.60;99.90
8313;DHT22;4194;43.408;24.626;2024-02-14T06:55:29;6.90;99.90
8313;DHT22;4194;43.408;24.626;2024-02-14T06:57:58;6.90;99.90
8313;DHT22;4194;43.408;24.626;2024-02-14T07:00:24;7.00;99.90
8313;DHT22;4194;43.408;24.626;2024-02-14T07:02:50;7.00;99.90
8313;DHT22;4194;43.408;24.626;2024-02-14T07:05:16;7.00;99.90
8313;DHT22;4194;43.408;24.626;2024-02-14T07:07:41;6.80;99.90
8313;DHT22;4194;43.408;24.626;2024-02-14T07:10:08;7.00;99.90
8313;DHT22;4194;43.408;24.626;2024-02-14T07:12:34;6.90;99.90
8313;DHT22;4194;43.408;24.626;2024-02-14T07:15:01;6.70;99.90
8313;DHT22;4194;43.408;24.626;2024-02-14T07:17:29;7.30;99.90
8313;DHT22;4194;43.408;24.626;2024-02-14T07:19:55;6.90;99.90
8313;DHT22;4194;43.408;24.626;2024-02-14T07:22:21;7.00;99.90
8313;DHT22;4194;43.408;24.626;2024-02-14T07:24:46;8.60;99.90
8313;DHT22;4194;43.408;24.626;2024-02-14T07:27:13;7.10;99.90
8313;DHT22;4194;43.408;24.626;2024-02-14T07:29:39;7.50;99.90
8313;DHT22;4194;43.408;24.626;2024-02-14T07:32:05;7.00;99.90
8313;DHT22;4194;43.408;24.626;2024-02-14T07:34:32;6.90;99.90
8313;DHT22;4194;43.408;24.626;2024-02-14T07:36:57;6.90;99.90
8313;DHT22;4194;43.408;24.626;2024-02-14T07:39:24;6.90;99.90
8313;DHT22;4194;43.408;24.626;2024-02-14T07:41:50;6.90;99.90
8313;DHT22;4194;43.408;24.626;2024-02-14T07:44:16;6.90;99.90
8313;DHT22;4194;43.408;24.626;2024-02-14T07:46:41;6.80;99.90
8313;DHT22;4194;43.408;24.626;2024-02-14T07:49:07;6.90;99.90
8313;DHT22;4194;43.408;24.626;2024-02-14T07:51:34;6.80;99.90
8313;DHT22;4194;43.408;24.626;2024-02-14T07:54:05;6.80;99.90
8313;DHT22;4194;43.408;24.626;2024-02-14T07:56:31;6.90;99.90
8313;DHT22;4194;43.408;24.626;2024-02-14T07:58:58;7.20;99.90
8313;DHT22;4194;43.408;24.626;2024-02-14T08:01:24;7.00;99.90
8313;DHT22;4194;43.408;24.626;2024-02-14T08:03:50;7.10;99.90
8313;DHT22;4194;43.408;24.626;2024-02-14T08:06:16;7.10;99.90
8313;DHT22;4194;43.408;24.626;2024-02-14T08:08:41;7.30;99.90
8313;DHT22;4194;43.408;24.626;2024-02-14T08:11:09;7.20;99.90
8313;DHT22;4194;43.408;24.626;2024-02-14T08:13:35;7.50;99.90
8313;DHT22;4194;43.408;24.626;2024-02-14T08:16:02;7.40;99.90
8313;DHT22;4194;43.408;24.626;2024-02-14T08:18:28;7.40;99.90
8313;DHT22;4194;43.408;24.626;2024-02-14T08:20:53;7.40;99.90
8313;DHT22;4194;43.408;24.626;2024-02-14T08:23:19;7.60;99.90
8313;DHT22;4194;43.408;24.626;2024-02-14T08:25:46;7.20;99.90
8313;DHT22;4194;43.408;24.626;2024-02-14T08:28:12;7.60;99.90
8313;DHT22;4194;43.408;24.626;2024-02-14T08:30:38;7.60;99.90
8313;DHT22;4194;43.408;24.626;2024-02-14T08:33:04;7.90;99.90
8313;DHT22;4194;43.408;24.626;2024-02-14T08:35:29;7.50;99.90
8313;DHT22;4194;43.408;24.626;2024-02-14T08:37:55;7.50;99.90
8313;DHT22;4194;43.408;24.626;2024-02-14T08:40:21;7.50;99.90
8313;DHT22;4194;43.408;24.626;2024-02-14T08:42:48;7.40;99.90
8313;DHT22;4194;43.408;24.626;2024-02-14T08:45:14;7.60;99.90
8313;DHT22;4194;43.408;24.626;2024-02-14T08:47:39;7.40;99.90
8313;DHT22;4194;43.408;24.626;2024-02-14T08:50:06;7.50;99.90
8313;DHT22;4194;43.408;24.626;2024-02-14T08:52:32;7.30;99.90
8313;DHT22;4194;43.408;24.626;2024-02-14T08:54:58;7.30;99.90
8313;DHT22;4194;43.408;24.626;2024-02-14T08:57:23;7.30;99.90
8313;DHT22;4194;43.408;24.626;2024-02-14T08:59:49;7.10;99.90
8313;DHT22;4194;43.408;24.626;2024-02-14T09:02:16;7.50;99.90
8313;DHT22;4194;43.408;24.626;2024-02-14T09:04:42;7.30;99.90
8313;DHT22;4194;43.408;24.626;2024-02-14T09:07:07;7.30;99.90
8313;DHT22;4194;43.408;24.626;2024-02-14T09:09:33;7.80;99.90
8313;DHT22;4194;43.408;24.626;2024-02-14T09:11:59;7.40;99.90
8313;DHT22;4194;43.408;24.626;2024-02-14T09:14:28;7.60;99.90
8313;DHT22;4194;43.408;24.626;2024-02-14T09:16:56;7.20;99.90
8313;DHT22;4194;43.408;24.626;2024-02-14T09:19:21;7.60;99.90
8313;DHT22;4194;43.408;24.626;2024-02-14T09:21:47;7.50;99.90
8313;DHT22;4194;43.408;24.626;2024-02-14T09:24:13;7.20;99.90
8313;DHT22;4194;43.408;24.626;2024-02-14T09:26:39;7.40;99.90
8313;DHT22;4194;43.408;24.626;2024-02-14T09:29:04;7.40;99.90
8313;DHT22;4194;43.408;24.626;2024-02-14T09:31:30;7.50;99.90
8313;DHT22;4194;43.408;24.626;2024-02-14T09:33:56;7.20;99.90
8313;DHT22;4194;43.408;24.626;2024-02-14T09:36:24;7.40;99.90
8313;DHT22;4194;43.408;24.626;2024-02-14T09:38:51;6.20;99.90
8313;DHT22;4194;43.408;24.626;2024-02-14T09:41:37;7.60;99.90
8313;DHT22;4194;43.408;24.626;2024-02-14T09:44:05;7.60;99.90
8313;DHT22;4194;43.408;24.626;2024-02-14T09:46:36;7.70;99.90
8313;DHT22;4194;43.408;24.626;2024-02-14T09:49:03;7.90;99.90
8313;DHT22;4194;43.408;24.626;2024-02-14T09:51:29;8.10;99.90
8313;DHT22;4194;43.408;24.626;2024-02-14T09:53:56;8.00;99.90
8313;DHT22;4194;43.408;24.626;2024-02-14T09:56:24;7.80;99.90
8313;DHT22;4194;43.408;24.626;2024-02-14T09:58:51;7.70;99.90
8313;DHT22;4194;43.408;24.626;2024-02-14T10:01:25;7.70;99.90
8313;DHT22;4194;43.408;24.626;2024-02-14T10:03:52;7.80;99.90
8313;DHT22;4194;43.408;24.626;2024-02-14T10:06:19;7.80;99.90
8313;DHT22;4194;43.408;24.626;2024-02-14T10:08:48;7.90;99.90
8313;DHT22;4194;43.408;24.626;2024-02-14T10:11:17;7.80;99.90
8313;DHT22;4194;43.408;24.626;2024-02-14T10:13:49;7.90;99.90
8313;DHT22;4194;43.408;24.626;2024-02-14T10:16:19;7.50;99.90
8313;DHT22;4194;43.408;24.626;2024-02-14T10:18:45;7.80;99.90
8313;DHT22;4194;43.408;24.626;2024-02-14T10:21:15;7.90;99.90
8313;DHT22;4194;43.408;24.626;2024-02-14T10:23:45;7.90;99.90
8313;DHT22;4194;43.408;24.626;2024-02-14T10:26:15;8.50;99.90
8313;DHT22;4194;43.408;24.626;2024-02-14T10:28:45;8.10;99.90
8313;DHT22;4194;43.408;24.626;2024-02-14T10:31:11;8.10;99.90
8313;DHT22;4194;43.408;24.626;2024-02-14T10:33:38;8.10;99.90
8313;DHT22;4194;43.408;24.626;2024-02-14T10:36:07;11.00;99.90
8313;DHT22;4194;43.408;24.626;2024-02-14T10:38:34;8.30;99.90
8313;DHT22;4194;43.408;24.626;2024-02-14T10:41:01;8.30;99.90
8313;DHT22;4194;43.408;24.626;2024-02-14T10:43:28;8.40;99.90
8313;DHT22;4194;43.408;24.626;2024-02-14T10:45:59;8.60;99.90
8313;DHT22;4194;43.408;24.626;2024-02-14T10:48:28;8.60;99.90
8313;DHT22;4194;43.408;24.626;2024-02-14T10:50:58;8.50;99.90
8313;DHT22;4194;43.408;24.626;2024-02-14T10:53:26;8.70;99.90
8313;DHT22;4194;43.408;24.626;2024-02-14T10:55:55;8.80;99.90
8313;DHT22;4194;43.408;24.626;2024-02-14T10:58:24;8.70;99.90
8313;DHT22;4194;43.408;24.626;2024-02-14T11:00:52;8.80;99.90
8313;DHT22;4194;43.408;24.626;2024-02-14T11:03:19;8.80;99.90
8313;DHT22;4194;43.408;24.626;2024-02-14T11:05:48;8.80;99.90
8313;DHT22;4194;43.408;24.626;2024-02-14T11:08:18;8.90;99.90
8313;DHT22;4194;43.408;24.626;2024-02-14T11:10:56;9.00;99.90
8313;DHT22;4194;43.408;24.626;2024-02-14T11:13:28;9.10;99.90
8313;DHT22;4194;43.408;24.626;2024-02-14T11:15:54;9.20;99.90
8313;DHT22;4194;43.408;24.626;2024-02-14T11:18:27;9.20;99.90
8313;DHT22;4194;43.408;24.626;2024-02-14T11:20:56;9.30;99.90
8313;DHT22;4194;43.408;24.626;2024-02-14T11:23:25;9.40;99.90
8313;DHT22;4194;43.408;24.626;2024-02-14T11:26:00;9.20;99.90
8313;DHT22;4194;43.408;24.626;2024-02-14T11:28:26;9.10;99.90
8313;DHT22;4194;43.408;24.626;2024-02-14T11:31:01;9.50;99.90
8313;DHT22;4194;43.408;24.626;2024-02-14T11:33:29;9.00;99.90
8313;DHT22;4194;43.408;24.626;2024-02-14T11:35:55;9.20;99.90
8313;DHT22;4194;43.408;24.626;2024-02-14T11:38:23;9.20;99.90
8313;DHT22;4194;43.408;24.626;2024-02-14T11:40:54;9.30;99.90
8313;DHT22;4194;43.408;24.626;2024-02-14T11:43:22;9.80;99.90
8313;DHT22;4194;43.408;24.626;2024-02-14T11:45:48;9.50;99.90
8313;DHT22;4194;43.408;24.626;2024-02-14T11:48:23;9.70;99.90
8313;DHT22;4194;43.408;24.626;2024-02-14T11:50:50;9.60;99.90
8313;DHT22;4194;43.408;24.626;2024-02-14T11:53:18;10.00;99.90
8313;DHT22;4194;43.408;24.626;2024-02-14T11:55:46;9.90;99.90
8313;DHT22;4194;43.408;24.626;2024-02-14T11:58:14;10.10;99.90
8313;DHT22;4194;43.408;24.626;2024-02-14T12:00:40;10.50;99.90
8313;DHT22;4194;43.408;24.626;2024-02-14T12:03:10;10.80;99.90
8313;DHT22;4194;43.408;24.626;2024-02-14T12:05:37;11.10;99.90
8313;DHT22;4194;43.408;24.626;2024-02-14T12:08:06;11.10;99.10
8313;DHT22;4194;43.408;24.626;2024-02-14T12:10:32;11.10;98.40
8313;DHT22;4194;43.408;24.626;2024-02-14T12:13:04;10.60;97.60
8313;DHT22;4194;43.408;24.626;2024-02-14T12:15:30;10.70;97.60
8313;DHT22;4194;43.408;24.626;2024-02-14T12:17:55;10.50;98.30
8313;DHT22;4194;43.408;24.626;2024-02-14T12:20:22;10.50;99.40
8313;DHT22;4194;43.408;24.626;2024-02-14T12:22:51;10.90;99.30
8313;DHT22;4194;43.408;24.626;2024-02-14T12:25:17;10.60;97.60
8313;DHT22;4194;43.408;24.626;2024-02-14T12:27:50;10.20;97.60
8313;DHT22;4194;43.408;24.626;2024-02-14T12:30:17;10.20;97.60
8313;DHT22;4194;43.408;24.626;2024-02-14T12:32:43;10.70;97.90
8313;DHT22;4194;43.408;24.626;2024-02-14T12:35:10;10.30;97.80
8313;DHT22;4194;43.408;24.626;2024-02-14T12:37:36;10.10;98.20
8313;DHT22;4194;43.408;24.626;2024-02-14T12:40:01;10.10;98.40
8313;DHT22;4194;43.408;24.626;2024-02-14T12:42:27;9.40;99.90
8313;DHT22;4194;43.408;24.626;2024-02-14T12:44:56;9.70;99.90
8313;DHT22;4194;43.408;24.626;2024-02-14T12:47:22;10.00;99.90
8313;DHT22;4194;43.408;24.626;2024-02-14T12:49:49;9.80;99.90
8313;DHT22;4194;43.408;24.626;2024-02-14T12:52:15;9.30;99.90
8313;DHT22;4194;43.408;24.626;2024-02-14T12:54:40;9.60;99.90
8313;DHT22;4194;43.408;24.626;2024-02-14T12:57:06;9.60;99.90
8313;DHT22;4194;43.408;24.626;2024-02-14T12:59:32;9.60;99.90
8313;DHT22;4194;43.408;24.626;2024-02-14T13:01:58;9.10;99.90
8313;DHT22;4194;43.408;24.626;2024-02-14T13:04:23;9.90;99.90
8313;DHT22;4194;43.408;24.626;2024-02-14T13:06:49;9.00;99.90
8313;DHT22;4194;43.408;24.626;2024-02-14T13:09:15;9.60;99.90
8313;DHT22;4194;43.408;24.626;2024-02-14T13:11:41;9.50;99.90
8313;DHT22;4194;43.408;24.626;2024-02-14T13:14:08;9.50;99.90
8313;DHT22;4194;43.408;24.626;2024-02-14T13:16:34;9.50;99.90
8313;DHT22;4194;43.408;24.626;2024-02-14T13:19:00;9.50;99.90
8313;DHT22;4194;43.408;24.626;2024-02-14T13:21:26;9.30;99.90
8313;DHT22;4194;43.408;24.626;2024-02-14T13:23:52;9.40;99.90
8313;DHT22;4194;43.408;24.626;2024-02-14T13:26:17;9.40;99.90
8313;DHT22;4194;43.408;24.626;2024-02-14T13:28:43;9.30;99.90
8313;DHT22;4194;43.408;24.626;2024-02-14T13:31:09;9.40;99.90
8313;DHT22;4194;43.408;24.626;2024-02-14T13:33:36;9.40;99.90
8313;DHT22;4194;43.408;24.626;2024-02-14T13:36:02;11.90;99.90
8313;DHT22;4194;43.408;24.626;2024-02-14T13:38:27;9.80;99.90
8313;DHT22;4194;43.408;24.626;2024-02-14T13:40:54;9.60;99.90
8313;DHT22;4194;43.408;24.626;2024-02-14T13:43:20;9.60;99.90
8313;DHT22;4194;43.408;24.626;2024-02-14T13:45:46;9.60;99.90
8313;DHT22;4194;43.408;24.626;2024-02-14T13:48:13;10.00;99.90
8313;DHT22;4194;43.408;24.626;2024-02-14T13:50:39;9.50;99.90
8313;DHT22;4194;43.408;24.626;2024-02-14T13:53:06;9.60;99.90
8313;DHT22;4194;43.408;24.626;2024-02-14T13:55:32;9.40;99.90
8313;DHT22;4194;43.408;24.626;2024-02-14T13:57:58;9.40;99.90
8313;DHT22;4194;43.408;24.626;2024-02-14T14:00:24;9.60;99.90
8313;DHT22;4194;43.408;24.626;2024-02-14T14:02:49;9.60;99.90
8313;DHT22;4194;43.408;24.626;2024-02-14T14:05:15;9.50;99.90
8313;DHT22;4194;43.408;24.626;2024-02-14T14:07:41;9.50;99.90
8313;DHT22;4194;43.408;24.626;2024-02-14T14:10:08;9.30;99.90
8313;DHT22;4194;43.408;24.626;2024-02-14T14:12:35;9.70;99.90
8313;DHT22;4194;43.408;24.626;2024-02-14T14:15:01;9.50;99.90
8313;DHT22;4194;43.408;24.626;2024-02-14T14:17:27;9.40;99.90
8313;DHT22;4194;43.408;24.626;2024-02-14T14:19:53;9.40;99.90
8313;DHT22;4194;43.408;24.626;2024-02-14T14:22:19;9.40;99.90
8313;DHT22;4194;43.408;24.626;2024-02-14T14:24:45;9.50;99.90
8313;DHT22;4194;43.408;24.626;2024-02-14T14:27:11;9.30;99.90
8313;DHT22;4194;43.408;24.626;2024-02-14T14:29:40;9.60;99.90
8313;DHT22;4194;43.408;24.626;2024-02-14T14:32:10;9.00;99.90
8313;DHT22;4194;43.408;24.626;2024-02-14T14:34:36;9.30;99.90
8313;DHT22;4194;43.408;24.626;2024-02-14T14:37:02;9.70;99.90
8313;DHT22;4194;43.408;24.626;2024-02-14T14:39:28;9.30;99.90
8313;DHT22;4194;43.408;24.626;2024-02-14T14:41:54;9.30;99.90
8313;DHT22;4194;43.408;24.626;2024-02-14T14:44:24;9.40;99.90
8313;DHT22;4194;43.408;24.626;2024-02-14T14:46:50;9.30;99.90
8313;DHT22;4194;43.408;24.626;2024-02-14T14:49:16;9.20;99.90
8313;DHT22;4194;43.408;24.626;2024-02-14T14:51:42;9.20;99.90
8313;DHT22;4194;43.408;24.626;2024-02-14T14:54:08;9.10;99.90
8313;DHT22;4194;43.408;24.626;2024-02-14T14:56:34;9.20;99.90
8313;DHT22;4194;43.408;24.626;2024-02-14T14:59:00;9.20;99.90
8313;DHT22;4194;43.408;24.626;2024-02-14T15:01:29;9.00;99.90
8313;DHT22;4194;43.408;24.626;2024-02-14T15:03:55;9.10;99.90
8313;DHT22;4194;43.408;24.626;2024-02-14T15:06:21;9.10;99.90
8313;DHT22;4194;43.408;24.626;2024-02-14T15:08:47;9.10;99.90
8313;DHT22;4194;43.408;24.626;2024-02-14T15:11:13;9.10;99.90
8313;DHT22;4194;43.408;24.626;2024-02-14T15:13:42;9.10;99.90
8313;DHT22;4194;43.408;24.626;2024-02-14T15:16:09;9.00;99.90
8313;DHT22;4194;43.408;24.626;2024-02-14T15:18:35;9.50;99.90
8313;DHT22;4194;43.408;24.626;2024-02-14T15:21:02;9.00;99.90
8313;DHT22;4194;43.408;24.626;2024-02-14T15:23:28;9.00;99.90
8313;DHT22;4194;43.408;24.626;2024-02-14T15:25:54;9.00;99.90
8313;DHT22;4194;43.408;24.626;2024-02-14T15:28:31;9.00;99.90
8313;DHT22;4194;43.408;24.626;2024-02-14T15:30:57;9.00;99.90
8313;DHT22;4194;43.408;24.626;2024-02-14T15:33:41;9.00;99.90
8313;DHT22;4194;43.408;24.626;2024-02-14T15:36:09;9.00;99.90
8313;DHT22;4194;43.408;24.626;2024-02-14T15:38:36;9.00;99.90
8313;DHT22;4194;43.408;24.626;2024-02-14T15:41:01;9.00;99.90
8313;DHT22;4194;43.408;24.626;2024-02-14T15:43:28;9.00;99.90
8313;DHT22;4194;43.408;24.626;2024-02-14T15:45:54;9.70;99.90
8313;DHT22;4194;43.408;24.626;2024-02-14T15:48:20;8.90;99.90
8313;DHT22;4194;43.408;24.626;2024-02-14T15:50:47;8.80;99.90
8313;DHT22;4194;43.408;24.626;2024-02-14T15:53:13;8.90;99.90
8313;DHT22;4194;43.408;24.626;2024-02-14T15:55:40;8.90;99.90
8313;DHT22;4194;43.408;24.626;2024-02-14T15:58:06;8.90;99.90